sensor_id;sensor_type;location;lat;lon;timestamp;pressure;altitude;pressure_sealevel;temperature;humidity
56006;BME280;41888;44.696;10.522;2023-05-12T00:00:51;100190.69;;;12.59;100.00
56006;BME280;41888;44.696;10.522;2023-05-12T00:03:17;100191.97;;;12.56;100.00
56006;BME280;41888;44.696;10.522;2023-05-12T00:05:43;100189.97;;;12.52;100.00
56006;BME280;41888;44.696;10.522;2023-05-12T00:08:10;100193.09;;;12.49;100.00
56006;BME280;41888;44.696;10.522;2023-05-12T00:10:36;100192.72;;;12.45;100.00
56006;BME280;41888;44.696;10.522;2023-05-12T00:13:02;100191.31;;;12.43;100.00
56006;BME280;41888;44.696;10.522;2023-05-12T00:15:28;100182.41;;;12.49;100.00
56006;BME280;41888;44.696;10.522;2023-05-12T00:17:54;100179.03;;;12.42;100.00
56006;BME280;41888;44.696;10.522;2023-05-12T00:20:21;100173.84;;;12.47;100.00
56006;BME280;41888;44.696;10.522;2023-05-12T00:22:47;100168.03;;;12.50;100.00
56006;BME280;41888;44.696;10.522;2023-05-12T00:25:13;100163.44;;;12.39;100.00
56006;BME280;41888;44.696;10.522;2023-05-12T00:27:39;100167.59;;;12.35;100.00
56006;BME280;41888;44.696;10.522;2023-05-12T00:30:06;100153.81;;;12.38;100.00
56006;BME280;41888;44.696;10.522;2023-05-12T00:32:32;100160.56;;;12.40;100.00
56006;BME280;41888;44.696;10.522;2023-05-12T00:34:59;100153.16;;;12.42;100.00
56006;BME280;41888;44.696;10.522;2023-05-12T00:37:25;100156.94;;;12.35;100.00
56006;BME280;41888;44.696;10.522;2023-05-12T00:39:51;100149.53;;;12.37;100.00
56006;BME280;41888;44.696;10.522;2023-05-12T00:42:17;100151.44;;;12.30;100.00
56006;BME280;41888;44.696;10.522;2023-05-12T00:44:43;100158.34;;;12.19;100.00
56006;BME280;41888;44.696;10.522;2023-05-12T00:47:09;100158.13;;;12.20;100.00
56006;BME280;41888;44.696;10.522;2023-05-12T00:49:37;100157.88;;;12.22;100.00
56006;BME280;41888;44.696;10.522;2023-05-12T00:52:07;100157.66;;;12.23;100.00
56006;BME280;41888;44.696;10.522;2023-05-12T00:54:37;100170.25;;;12.16;100.00
56006;BME280;41888;44.696;10.522;2023-05-12T00:57:03;100172.91;;;12.16;100.00
56006;BME280;41888;44.696;10.522;2023-05-12T00:59:30;100175.44;;;12.11;100.00
56006;BME280;41888;44.696;10.522;2023-05-12T01:01:56;100165.81;;;12.10;100.00
56006;BME280;41888;44.696;10.522;2023-05-12T01:04:22;100164.28;;;12.21;100.00
56006;BME280;41888;44.696;10.522;2023-05-12T01:07:02;100168.63;;;12.15;100.00
56006;BME280;41888;44.696;10.522;2023-05-12T01:09:30;100171.28;;;12.34;100.00
56006;BME280;41888;44.696;10.522;2023-05-12T01:11:56;100178.13;;;12.30;100.00
56006;BME280;41888;44.696;10.522;2023-05-12T01:14:22;100171.38;;;12.27;100.00
56006;BME280;41888;44.696;10.522;2023-05-12T01:16:53;100165.25;;;12.26;100.00
56006;BME280;41888;44.696;10.522;2023-05-12T01:19:49;100158.47;;;12.24;100.00
56006;BME280;41888;44.696;10.522;2023-05-12T01:22:17;100163.31;;;12.15;100.00
56006;BME280;41888;44.696;10.522;2023-05-12T01:25:02;100151.56;;;12.16;100.00
56006;BME280;41888;44.696;10.522;2023-05-12T01:27:29;100157.66;;;12.05;100.00
56006;BME280;41888;44.696;10.522;2023-05-12T01:29:59;100149.19;;;11.90;100.00
56006;BME280;41888;44.696;10.522;2023-05-12T01:32:25;100147.47;;;11.77;100.00
56006;BME280;41888;44.696;10.522;2023-05-12T01:34:52;100147.19;;;11.85;100.00
56006;BME280;41888;44.696;10.522;2023-05-12T01:37:18;100146.81;;;11.82;100.00
56006;BME280;41888;44.696;10.522;2023-05-12T01:39:44;100157.91;;;11.79;100.00
56006;BME280;41888;44.696;10.522;2023-05-12T01:42:10;100160.00;;;11.70;100.00
56006;BME280;41888;44.696;10.522;2023-05-12T01:44:37;100159.63;;;11.73;100.00
56006;BME280;41888;44.696;10.522;2023-05-12T01:47:03;100155.28;;;11.72;100.00
56006;BME280;41888;44.696;10.522;2023-05-12T01:49:29;100151.38;;;11.75;100.00
56006;BME280;41888;44.696;10.522;2023-05-12T01:51:55;100145.47;;;11.73;100.00
56006;BME280;41888;44.696;10.522;2023-05-12T01:54:22;100151.97;;;11.77;100.00
56006;BME280;41888;44.696;10.522;2023-05-12T01:56:48;100159.38;;;11.75;100.00
56006;BME280;41888;44.696;10.522;2023-05-12T01:59:14;100158.13;;;11.77;100.00
56006;BME280;41888;44.696;10.522;2023-05-12T02:01:40;100150.88;;;11.84;100.00
56006;BME280;41888;44.696;10.522;2023-05-12T02:04:06;100157.31;;;11.77;100.00
56006;BME280;41888;44.696;10.522;2023-05-12T02:06:33;100152.81;;;11.71;100.00
56006;BME280;41888;44.696;10.522;2023-05-12T02:08:59;100152.97;;;11.82;100.00
56006;BME280;41888;44.696;10.522;2023-05-12T02:11:26;100154.03;;;11.75;100.00
56006;BME280;41888;44.696;10.522;2023-05-12T02:13:52;100148.31;;;11.71;100.00
56006;BME280;41888;44.696;10.522;2023-05-12T02:16:18;100147.34;;;11.66;100.00
56006;BME280;41888;44.696;10.522;2023-05-12T02:18:44;100144.81;;;11.71;100.00
56006;BME280;41888;44.696;10.522;2023-05-12T02:21:10;100139.13;;;11.67;100.00
56006;BME280;41888;44.696;10.522;2023-05-12T02:23:37;100132.16;;;11.66;100.00
56006;BME280;41888;44.696;10.522;2023-05-12T02:26:03;100138.00;;;11.57;100.00
56006;BME280;41888;44.696;10.522;2023-05-12T02:28:29;100130.66;;;11.52;100.00
56006;BME280;41888;44.696;10.522;2023-05-12T02:30:55;100131.91;;;11.50;100.00
56006;BME280;41888;44.696;10.522;2023-05-12T02:33:22;100132.75;;;11.43;100.00
56006;BME280;41888;44.696;10.522;2023-05-12T02:35:48;100136.53;;;11.36;100.00
56006;BME280;41888;44.696;10.522;2023-05-12T02:38:14;100132.44;;;11.33;100.00
56006;BME280;41888;44.696;10.522;2023-05-12T02:40:41;100129.97;;;11.32;100.00
56006;BME280;41888;44.696;10.522;2023-05-12T02:43:07;100130.53;;;11.40;100.00
56006;BME280;41888;44.696;10.522;2023-05-12T02:45:34;100139.28;;;11.48;100.00
56006;BME280;41888;44.696;10.522;2023-05-12T02:48:00;100136.78;;;11.53;100.00
56006;BME280;41888;44.696;10.522;2023-05-12T02:50:27;100135.16;;;11.52;100.00
56006;BME280;41888;44.696;10.522;2023-05-12T02:52:53;100135.47;;;11.37;100.00
56006;BME280;41888;44.696;10.522;2023-05-12T02:55:19;100138.69;;;11.46;100.00
56006;BME280;41888;44.696;10.522;2023-05-12T02:57:45;100129.00;;;11.26;100.00
56006;BME280;41888;44.696;10.522;2023-05-12T03:00:12;100132.25;;;11.28;100.00
56006;BME280;41888;44.696;10.522;2023-05-12T03:02:40;100134.16;;;11.21;100.00
56006;BME280;41888;44.696;10.522;2023-05-12T03:05:07;100136.81;;;11.21;100.00
56006;BME280;41888;44.696;10.522;2023-05-12T03:07:36;100128.25;;;11.19;100.00
56006;BME280;41888;44.696;10.522;2023-05-12T03:10:03;100132.59;;;11.14;100.00
56006;BME280;41888;44.696;10.522;2023-05-12T03:12:29;100129.53;;;11.10;100.00
56006;BME280;41888;44.696;10.522;2023-05-12T03:14:55;100123.47;;;10.96;100.00
56006;BME280;41888;44.696;10.522;2023-05-12T03:17:22;100123.84;;;11.00;100.00
56006;BME280;41888;44.696;10.522;2023-05-12T03:19:48;100130.59;;;11.02;100.00
56006;BME280;41888;44.696;10.522;2023-05-12T03:22:14;100135.13;;;11.02;100.00
56006;BME280;41888;44.696;10.522;2023-05-12T03:24:41;100127.97;;;10.96;100.00
56006;BME280;41888;44.696;10.522;2023-05-12T03:27:07;100125.72;;;10.99;100.00
56006;BME280;41888;44.696;10.522;2023-05-12T03:29:33;100129.63;;;10.97;100.00
56006;BME280;41888;44.696;10.522;2023-05-12T03:31:59;100122.66;;;10.96;100.00
56006;BME280;41888;44.696;10.522;2023-05-12T03:34:25;100135.50;;;11.06;100.00
56006;BME280;41888;44.696;10.522;2023-05-12T03:36:51;100133.94;;;11.23;100.00
56006;BME280;41888;44.696;10.522;2023-05-12T03:39:18;100134.25;;;11.08;100.00
56006;BME280;41888;44.696;10.522;2023-05-12T03:41:44;100135.72;;;11.04;100.00
56006;BME280;41888;44.696;10.522;2023-05-12T03:44:10;100139.63;;;11.01;100.00
56006;BME280;41888;44.696;10.522;2023-05-12T03:46:37;100131.63;;;11.01;100.00
56006;BME280;41888;44.696;10.522;2023-05-12T03:49:03;100143.09;;;11.02;100.00
56006;BME280;41888;44.696;10.522;2023-05-12T03:51:31;100132.44;;;11.02;100.00
56006;BME280;41888;44.696;10.522;2023-05-12T03:53:57;100130.97;;;11.06;100.00
56006;BME280;41888;44.696;10.522;2023-05-12T03:56:23;100137.53;;;11.10;100.00
56006;BME280;41888;44.696;10.522;2023-05-12T03:58:49;100131.66;;;10.95;100.00
56006;BME280;41888;44.696;10.522;2023-05-12T04:01:15;100129.28;;;10.87;100.00
56006;BME280;41888;44.696;10.522;2023-05-12T04:03:42;100130.91;;;10.88;100.00
56006;BME280;41888;44.696;10.522;2023-05-12T04:06:08;100125.41;;;10.83;100.00
56006;BME280;41888;44.696;10.522;2023-05-12T04:08:34;100131.50;;;10.90;100.00
56006;BME280;41888;44.696;10.522;2023-05-12T04:11:01;100131.09;;;10.93;100.00
56006;BME280;41888;44.696;10.522;2023-05-12T04:13:28;100138.78;;;11.01;100.00
56006;BME280;41888;44.696;10.522;2023-05-12T04:15:55;100125.53;;;10.94;100.00
56006;BME280;41888;44.696;10.522;2023-05-12T04:18:22;100123.00;;;11.06;100.00
56006;BME280;41888;44.696;10.522;2023-05-12T04:20:48;100126.09;;;11.03;100.00
56006;BME280;41888;44.696;10.522;2023-05-12T04:23:15;100133.28;;;11.02;100.00
56006;BME280;41888;44.696;10.522;2023-05-12T04:25:41;100138.56;;;11.09;100.00
56006;BME280;41888;44.696;10.522;2023-05-12T04:28:08;100135.03;;;11.15;100.00
56006;BME280;41888;44.696;10.522;2023-05-12T04:30:35;100142.75;;;11.23;100.00
56006;BME280;41888;44.696;10.522;2023-05-12T04:33:03;100141.78;;;11.42;100.00
56006;BME280;41888;44.696;10.522;2023-05-12T04:35:29;100153.66;;;11.47;100.00
56006;BME280;41888;44.696;10.522;2023-05-12T04:37:56;100150.28;;;11.58;100.00
56006;BME280;41888;44.696;10.522;2023-05-12T04:40:22;100149.22;;;11.59;100.00
56006;BME280;41888;44.696;10.522;2023-05-12T04:42:48;100154.84;;;11.51;100.00
56006;BME280;41888;44.696;10.522;2023-05-12T04:45:14;100150.72;;;11.55;100.00
56006;BME280;41888;44.696;10.522;2023-05-12T04:47:40;100161.03;;;11.44;100.00
56006;BME280;41888;44.696;10.522;2023-05-12T04:50:07;100152.00;;;11.46;100.00
56006;BME280;41888;44.696;10.522;2023-05-12T04:52:35;100158.69;;;11.55;100.00
56006;BME280;41888;44.696;10.522;2023-05-12T04:55:01;100155.72;;;11.44;100.00
56006;BME280;41888;44.696;10.522;2023-05-12T04:57:28;100155.25;;;11.48;100.00
56006;BME280;41888;44.696;10.522;2023-05-12T04:59:54;100146.72;;;11.64;100.00
56006;BME280;41888;44.696;10.522;2023-05-12T05:02:21;100153.63;;;11.71;100.00
56006;BME280;41888;44.696;10.522;2023-05-12T05:04:48;100161.63;;;11.78;100.00
56006;BME280;41888;44.696;10.522;2023-05-12T05:07:14;100164.44;;;11.83;100.00
56006;BME280;41888;44.696;10.522;2023-05-12T05:09:40;100163.44;;;12.02;100.00
56006;BME280;41888;44.696;10.522;2023-05-12T05:12:06;100167.44;;;12.11;100.00
56006;BME280;41888;44.696;10.522;2023-05-12T05:14:32;100163.31;;;12.15;100.00
56006;BME280;41888;44.696;10.522;2023-05-12T05:16:59;100160.63;;;13.30;100.00
56006;BME280;41888;44.696;10.522;2023-05-12T05:19:26;100155.47;;;13.17;100.00
56006;BME280;41888;44.696;10.522;2023-05-12T05:21:52;100159.88;;;13.52;100.00
56006;BME280;41888;44.696;10.522;2023-05-12T05:24:18;100159.78;;;14.69;100.00
56006;BME280;41888;44.696;10.522;2023-05-12T05:26:44;100160.75;;;15.86;100.00
56006;BME280;41888;44.696;10.522;2023-05-12T05:29:11;100154.94;;;17.84;100.00
56006;BME280;41888;44.696;10.522;2023-05-12T05:31:37;100163.13;;;19.79;100.00
56006;BME280;41888;44.696;10.522;2023-05-12T05:34:03;100164.31;;;21.51;100.00
56006;BME280;41888;44.696;10.522;2023-05-12T05:36:30;100170.50;;;22.38;92.00
56006;BME280;41888;44.696;10.522;2023-05-12T05:38:56;100172.00;;;22.49;88.06
56006;BME280;41888;44.696;10.522;2023-05-12T05:41:22;100181.66;;;22.84;85.71
56006;BME280;41888;44.696;10.522;2023-05-12T05:43:48;100184.16;;;23.36;82.98
56006;BME280;41888;44.696;10.522;2023-05-12T05:46:14;100189.97;;;22.45;85.20
56006;BME280;41888;44.696;10.522;2023-05-12T05:48:40;100184.50;;;21.97;88.90
56006;BME280;41888;44.696;10.522;2023-05-12T05:51:07;100199.56;;;23.03;83.23
56006;BME280;41888;44.696;10.522;2023-05-12T05:53:36;100196.16;;;24.14;76.11
56006;BME280;41888;44.696;10.522;2023-05-12T05:56:02;100195.44;;;23.94;76.59
56006;BME280;41888;44.696;10.522;2023-05-12T05:58:28;100207.47;;;23.37;80.59
56006;BME280;41888;44.696;10.522;2023-05-12T06:00:54;100202.72;;;23.48;77.22
56006;BME280;41888;44.696;10.522;2023-05-12T06:03:21;100219.41;;;24.06;74.36
56006;BME280;41888;44.696;10.522;2023-05-12T06:05:48;100214.75;;;24.66;72.49
56006;BME280;41888;44.696;10.522;2023-05-12T06:08:14;100223.34;;;24.14;72.16
56006;BME280;41888;44.696;10.522;2023-05-12T06:10:40;100223.75;;;23.00;79.48
56006;BME280;41888;44.696;10.522;2023-05-12T06:13:07;100220.88;;;22.67;79.15
56006;BME280;41888;44.696;10.522;2023-05-12T06:15:33;100221.22;;;22.61;81.77
56006;BME280;41888;44.696;10.522;2023-05-12T06:17:59;100220.63;;;21.82;83.99
56006;BME280;41888;44.696;10.522;2023-05-12T06:20:26;100219.00;;;21.47;86.34
56006;BME280;41888;44.696;10.522;2023-05-12T06:23:01;100227.31;;;21.12;90.72
56006;BME280;41888;44.696;10.522;2023-05-12T06:25:27;100225.47;;;20.13;91.68
56006;BME280;41888;44.696;10.522;2023-05-12T06:27:53;100214.16;;;19.45;97.50
56006;BME280;41888;44.696;10.522;2023-05-12T06:30:19;100214.97;;;19.66;97.34
56006;BME280;41888;44.696;10.522;2023-05-12T06:32:46;100215.19;;;20.05;94.90
56006;BME280;41888;44.696;10.522;2023-05-12T06:35:12;100212.81;;;18.65;96.64
56006;BME280;41888;44.696;10.522;2023-05-12T06:37:38;100212.84;;;18.28;100.00
56006;BME280;41888;44.696;10.522;2023-05-12T06:40:05;100207.09;;;18.62;100.00
56006;BME280;41888;44.696;10.522;2023-05-12T06:42:32;100199.41;;;18.85;100.00
56006;BME280;41888;44.696;10.522;2023-05-12T06:44:58;100206.94;;;18.83;98.66
56006;BME280;41888;44.696;10.522;2023-05-12T06:47:25;100213.38;;;18.82;99.45
56006;BME280;41888;44.696;10.522;2023-05-12T06:49:51;100199.88;;;18.25;100.00
56006;BME280;41888;44.696;10.522;2023-05-12T06:52:17;100200.38;;;18.59;100.00
56006;BME280;41888;44.696;10.522;2023-05-12T06:54:45;100197.97;;;17.25;100.00
56006;BME280;41888;44.696;10.522;2023-05-12T06:57:11;100195.81;;;16.95;100.00
56006;BME280;41888;44.696;10.522;2023-05-12T06:59:37;100203.19;;;16.61;100.00
56006;BME280;41888;44.696;10.522;2023-05-12T07:02:04;100197.09;;;16.93;100.00
56006;BME280;41888;44.696;10.522;2023-05-12T07:04:30;100197.28;;;17.08;100.00
56006;BME280;41888;44.696;10.522;2023-05-12T07:06:56;100194.56;;;17.35;100.00
56006;BME280;41888;44.696;10.522;2023-05-12T07:09:22;100206.19;;;16.65;100.00
56006;BME280;41888;44.696;10.522;2023-05-12T07:11:49;100193.22;;;17.05;100.00
56006;BME280;41888;44.696;10.522;2023-05-12T07:14:16;100197.34;;;18.08;100.00
56006;BME280;41888;44.696;10.522;2023-05-12T07:16:42;100196.22;;;17.99;100.00
56006;BME280;41888;44.696;10.522;2023-05-12T07:19:08;100196.50;;;17.66;100.00
56006;BME280;41888;44.696;10.522;2023-05-12T07:21:35;100202.75;;;16.91;100.00
56006;BME280;41888;44.696;10.522;2023-05-12T07:24:02;100200.00;;;16.86;100.00
56006;BME280;41888;44.696;10.522;2023-05-12T07:26:28;100201.59;;;16.87;100.00
56006;BME280;41888;44.696;10.522;2023-05-12T07:28:54;100202.84;;;17.01;100.00
56006;BME280;41888;44.696;10.522;2023-05-12T07:31:20;100199.59;;;16.99;100.00
56006;BME280;41888;44.696;10.522;2023-05-12T07:33:47;100204.88;;;16.51;100.00
56006;BME280;41888;44.696;10.522;2023-05-12T07:36:13;100209.59;;;16.82;100.00
56006;BME280;41888;44.696;10.522;2023-05-12T07:38:39;100199.09;;;17.29;100.00
56006;BME280;41888;44.696;10.522;2023-05-12T07:41:05;100202.41;;;17.36;100.00
56006;BME280;41888;44.696;10.522;2023-05-12T07:43:31;100195.16;;;16.88;100.00
56006;BME280;41888;44.696;10.522;2023-05-12T07:45:58;100197.00;;;17.09;100.00
56006;BME280;41888;44.696;10.522;2023-05-12T07:48:25;100198.44;;;17.44;100.00
56006;BME280;41888;44.696;10.522;2023-05-12T07:50:52;100196.00;;;18.06;100.00
56006;BME280;41888;44.696;10.522;2023-05-12T07:53:18;100200.28;;;18.44;100.00
56006;BME280;41888;44.696;10.522;2023-05-12T07:55:44;100199.22;;;18.45;100.00
56006;BME280;41888;44.696;10.522;2023-05-12T07:58:11;100203.97;;;18.28;100.00
56006;BME280;41888;44.696;10.522;2023-05-12T08:00:38;100205.22;;;17.78;100.00
56006;BME280;41888;44.696;10.522;2023-05-12T08:03:04;100206.41;;;17.07;100.00
56006;BME280;41888;44.696;10.522;2023-05-12T08:05:32;100214.72;;;16.62;100.00
56006;BME280;41888;44.696;10.522;2023-05-12T08:07:58;100208.06;;;16.64;100.00
56006;BME280;41888;44.696;10.522;2023-05-12T08:10:25;100207.66;;;16.99;100.00
56006;BME280;41888;44.696;10.522;2023-05-12T08:12:54;100208.91;;;16.48;100.00
56006;BME280;41888;44.696;10.522;2023-05-12T08:15:21;100206.44;;;16.46;100.00
56006;BME280;41888;44.696;10.522;2023-05-12T08:17:47;100205.09;;;16.44;100.00
56006;BME280;41888;44.696;10.522;2023-05-12T08:20:13;100198.75;;;16.72;100.00
56006;BME280;41888;44.696;10.522;2023-05-12T08:22:40;100202.53;;;16.16;100.00
56006;BME280;41888;44.696;10.522;2023-05-12T08:25:07;100203.28;;;16.11;100.00
56006;BME280;41888;44.696;10.522;2023-05-12T08:27:33;100207.56;;;16.51;100.00
56006;BME280;41888;44.696;10.522;2023-05-12T08:29:59;100211.22;;;16.61;100.00
56006;BME280;41888;44.696;10.522;2023-05-12T08:32:26;100202.72;;;17.13;100.00
56006;BME280;41888;44.696;10.522;2023-05-12T08:34:52;100206.00;;;17.20;100.00
56006;BME280;41888;44.696;10.522;2023-05-12T08:37:19;100200.75;;;17.08;100.00
56006;BME280;41888;44.696;10.522;2023-05-12T08:39:45;100205.22;;;17.51;100.00
56006;BME280;41888;44.696;10.522;2023-05-12T08:42:34;100209.56;;;18.21;100.00
56006;BME280;41888;44.696;10.522;2023-05-12T08:45:02;100208.50;;;17.85;100.00
56006;BME280;41888;44.696;10.522;2023-05-12T08:47:30;100205.66;;;17.38;100.00
56006;BME280;41888;44.696;10.522;2023-05-12T08:50:07;100213.00;;;17.21;100.00
56006;BME280;41888;44.696;10.522;2023-05-12T08:52:35;100219.03;;;17.06;100.00
56006;BME280;41888;44.696;10.522;2023-05-12T08:55:02;100206.97;;;17.09;100.00
56006;BME280;41888;44.696;10.522;2023-05-12T08:57:29;100212.25;;;17.25;100.00
56006;BME280;41888;44.696;10.522;2023-05-12T08:59:57;100202.94;;;17.60;100.00
56006;BME280;41888;44.696;10.522;2023-05-12T09:02:25;100207.88;;;17.73;100.00
56006;BME280;41888;44.696;10.522;2023-05-12T09:04:52;100193.84;;;17.39;100.00
56006;BME280;41888;44.696;10.522;2023-05-12T09:07:21;100193.41;;;16.99;100.00
56006;BME280;41888;44.696;10.522;2023-05-12T09:09:57;100200.53;;;17.10;100.00
56006;BME280;41888;44.696;10.522;2023-05-12T09:12:25;100204.56;;;17.66;100.00
56006;BME280;41888;44.696;10.522;2023-05-12T09:15:03;100205.03;;;17.90;100.00
56006;BME280;41888;44.696;10.522;2023-05-12T09:17:29;100203.97;;;18.33;100.00
56006;BME280;41888;44.696;10.522;2023-05-12T09:19:55;100216.78;;;18.15;100.00
56006;BME280;41888;44.696;10.522;2023-05-12T09:22:29;100218.78;;;17.93;100.00
56006;BME280;41888;44.696;10.522;2023-05-12T09:24:56;100221.13;;;17.53;100.00
56006;BME280;41888;44.696;10.522;2023-05-12T09:27:26;100223.03;;;17.04;100.00
56006;BME280;41888;44.696;10.522;2023-05-12T09:29:53;100218.56;;;17.14;100.00
56006;BME280;41888;44.696;10.522;2023-05-12T09:32:30;100217.66;;;17.30;100.00
56006;BME280;41888;44.696;10.522;2023-05-12T09:35:07;100225.13;;;17.50;100.00
56006;BME280;41888;44.696;10.522;2023-05-12T09:37:36;100227.22;;;17.70;100.00
56006;BME280;41888;44.696;10.522;2023-05-12T09:40:05;100229.59;;;17.40;100.00
56006;BME280;41888;44.696;10.522;2023-05-12T09:42:33;100222.56;;;17.34;100.00
56006;BME280;41888;44.696;10.522;2023-05-12T09:45:04;100223.59;;;17.06;100.00
56006;BME280;41888;44.696;10.522;2023-05-12T09:47:39;100221.88;;;17.21;100.00
56006;BME280;41888;44.696;10.522;2023-05-12T09:50:06;100231.16;;;17.09;100.00
56006;BME280;41888;44.696;10.522;2023-05-12T09:52:37;100223.50;;;17.49;100.00
56006;BME280;41888;44.696;10.522;2023-05-12T09:55:09;100226.78;;;17.29;100.00
56006;BME280;41888;44.696;10.522;2023-05-12T09:57:40;100235.16;;;17.06;100.00
56006;BME280;41888;44.696;10.522;2023-05-12T10:00:11;100234.94;;;16.86;100.00
56006;BME280;41888;44.696;10.522;2023-05-12T10:02:48;100230.97;;;16.72;100.00
56006;BME280;41888;44.696;10.522;2023-05-12T10:05:16;100239.41;;;16.59;100.00
56006;BME280;41888;44.696;10.522;2023-05-12T10:07:47;100245.75;;;16.69;100.00
56006;BME280;41888;44.696;10.522;2023-05-12T10:10:23;100249.03;;;16.76;100.00
56006;BME280;41888;44.696;10.522;2023-05-12T10:12:51;100255.56;;;16.80;100.00
56006;BME280;41888;44.696;10.522;2023-05-12T10:15:19;100256.56;;;16.58;100.00
56006;BME280;41888;44.696;10.522;2023-05-12T10:17:46;100255.16;;;16.55;100.00
56006;BME280;41888;44.696;10.522;2023-05-12T10:20:13;100249.34;;;16.41;100.00
56006;BME280;41888;44.696;10.522;2023-05-12T10:22:40;100256.81;;;16.39;100.00
56006;BME280;41888;44.696;10.522;2023-05-12T10:25:08;100261.75;;;16.09;100.00
56006;BME280;41888;44.696;10.522;2023-05-12T10:27:34;100263.22;;;15.83;100.00
56006;BME280;41888;44.696;10.522;2023-05-12T10:30:02;100264.47;;;15.36;100.00
56006;BME280;41888;44.696;10.522;2023-05-12T10:32:30;100267.81;;;15.14;100.00
56006;BME280;41888;44.696;10.522;2023-05-12T10:35:07;100277.97;;;14.49;100.00
56006;BME280;41888;44.696;10.522;2023-05-12T10:37:35;100277.22;;;13.95;100.00
56006;BME280;41888;44.696;10.522;2023-05-12T10:40:02;100277.97;;;13.31;100.00
56006;BME280;41888;44.696;10.522;2023-05-12T10:42:37;100278.81;;;13.14;100.00
56006;BME280;41888;44.696;10.522;2023-05-12T10:45:14;100284.28;;;13.00;100.00
56006;BME280;41888;44.696;10.522;2023-05-12T10:47:42;100256.19;;;13.16;100.00
56006;BME280;41888;44.696;10.522;2023-05-12T10:50:09;100247.63;;;13.07;100.00
56006;BME280;41888;44.696;10.522;2023-05-12T10:52:40;100239.34;;;13.16;100.00
56006;BME280;41888;44.696;10.522;2023-05-12T10:55:10;100236.59;;;13.34;100.00
56006;BME280;41888;44.696;10.522;2023-05-12T10:57:49;100251.94;;;13.27;100.00
56006;BME280;41888;44.696;10.522;2023-05-12T11:00:20;100240.38;;;13.15;100.00
56006;BME280;41888;44.696;10.522;2023-05-12T11:02:50;100225.97;;;13.16;100.00
56006;BME280;41888;44.696;10.522;2023-05-12T11:05:16;100211.72;;;13.22;100.00
56006;BME280;41888;44.696;10.522;2023-05-12T11:07:47;100216.66;;;13.36;100.00
56006;BME280;41888;44.696;10.522;2023-05-12T11:10:14;100233.91;;;13.64;100.00
56006;BME280;41888;44.696;10.522;2023-05-12T11:12:42;100242.63;;;13.29;100.00
56006;BME280;41888;44.696;10.522;2023-05-12T11:15:09;100242.97;;;13.21;100.00
56006;BME280;41888;44.696;10.522;2023-05-12T11:17:40;100240.09;;;13.34;100.00
56006;BME280;41888;44.696;10.522;2023-05-12T11:20:07;100247.81;;;13.54;100.00
56006;BME280;41888;44.696;10.522;2023-05-12T11:22:34;100242.59;;;13.47;100.00
56006;BME280;41888;44.696;10.522;2023-05-12T11:25:09;100251.66;;;13.46;100.00
56006;BME280;41888;44.696;10.522;2023-05-12T11:27:35;100245.38;;;13.52;100.00
56006;BME280;41888;44.696;10.522;2023-05-12T11:30:08;100256.63;;;13.84;100.00
56006;BME280;41888;44.696;10.522;2023-05-12T11:32:35;100258.38;;;13.90;100.00
56006;BME280;41888;44.696;10.522;2023-05-12T11:35:13;100245.94;;;14.19;100.00
56006;BME280;41888;44.696;10.522;2023-05-12T11:37:41;100250.03;;;14.45;100.00
56006;BME280;41888;44.696;10.522;2023-05-12T11:40:26;100241.88;;;14.63;100.00
56006;BME280;41888;44.696;10.522;2023-05-12T11:42:52;100234.38;;;14.77;100.00
56006;BME280;41888;44.696;10.522;2023-05-12T11:45:21;100230.53;;;14.85;100.00
56006;BME280;41888;44.696;10.522;2023-05-12T11:47:47;100227.25;;;14.94;100.00
56006;BME280;41888;44.696;10.522;2023-05-12T11:50:22;100215.03;;;15.15;100.00
56006;BME280;41888;44.696;10.522;2023-05-12T11:52:49;100200.38;;;15.34;100.00
56006;BME280;41888;44.696;10.522;2023-05-12T11:55:21;100192.59;;;15.49;100.00
56006;BME280;41888;44.696;10.522;2023-05-12T11:57:56;100198.50;;;15.80;100.00
56006;BME280;41888;44.696;10.522;2023-05-12T12:00:28;100197.84;;;16.06;100.00
56006;BME280;41888;44.696;10.522;2023-05-12T12:03:11;100194.56;;;16.04;100.00
56006;BME280;41888;44.696;10.522;2023-05-12T12:05:39;100195.47;;;16.10;100.00
56006;BME280;41888;44.696;10.522;2023-05-12T12:08:11;100200.94;;;16.36;100.00
56006;BME280;41888;44.696;10.522;2023-05-12T12:10:41;100197.06;;;16.27;100.00
56006;BME280;41888;44.696;10.522;2023-05-12T12:13:08;100196.78;;;16.07;100.00
56006;BME280;41888;44.696;10.522;2023-05-12T12:15:34;100191.13;;;16.25;100.00
56006;BME280;41888;44.696;10.522;2023-05-12T12:18:00;100178.34;;;16.32;100.00
56006;BME280;41888;44.696;10.522;2023-05-12T12:20:26;100183.00;;;16.59;100.00
56006;BME280;41888;44.696;10.522;2023-05-12T12:22:53;100168.31;;;16.88;100.00
56006;BME280;41888;44.696;10.522;2023-05-12T12:25:20;100169.53;;;16.75;100.00
56006;BME280;41888;44.696;10.522;2023-05-12T12:27:46;100157.66;;;16.98;100.00
56006;BME280;41888;44.696;10.522;2023-05-12T12:30:14;100156.75;;;17.14;100.00
56006;BME280;41888;44.696;10.522;2023-05-12T12:32:41;100159.28;;;17.26;100.00